ASN logo
ASN Wikibase Occurrence # 191912
Last updated: 17 November 2021
This information is added by users of ASN. Neither ASN nor the Flight Safety Foundation are responsible for the completeness or correctness of this information. If you feel this information is incomplete or incorrect, you can submit corrected information.

Date:07-DEC-2016
Time:23:33
Type:Silhouette image of generic B735 model; specific model in this crash may look slightly different
Boeing 737-5Y0
Owner/operator:Nordavia
Registration: VP-BQI
MSN: 25186/2236
Fatalities:Fatalities: 0 / Occupants:
Other fatalities:0
Aircraft damage: Unknown
Location:Murmansk Airport (MMK/ULMM) -   Russia
Phase: Landing
Nature:Passenger - Scheduled
Departure airport:UUDD
Destination airport:ULMM
Narrative:
Nordavia flight 5N521, a Boeing 737-500, suffered a runway excursion during landing rollout on runway 31 at Murmansk Airport, Russia.

Weather about the incident time (23:33 LT / 20:33Z):
ULMM 072130Z VRB01MPS 9999 BKN024 M11/M12 Q0994 R31/450342 NOSIG RMK QFE738
ULMM 072100Z VRB01MPS 9999 BKN024 M10/M12 Q0994 R31/450342 NOSIG RMK QFE738
ULMM 072030Z VRB01MPS 9999 BKN024 M10/M12 Q0994 R31/450342 NOSIG RMK QFE738
ULMM 072000Z VRB01MPS 9999 BKN022 M10/M12 Q0994 R31/450342 NOSIG RMK QFE739

Sources:

https://www.rbc.ru/rbcfreenews/5848b3a29a794719304bd18d
http://severpost.ru/read/48991/
https://www.flightradar24.com/data/flights/5n521#bd3cc8f


Images:

Photo of VP-BQI courtesy AirHistory.net


Saint Petersburg - Pulkovo (ULLI / LED)
22 August 2018; (c) Felix Goetting

Revision history:

Date/timeContributorUpdates
08-Dec-2016 12:34 dandbdi Added
08-Dec-2016 12:38 harro Updated [Date, Time, Aircraft type, Registration, Cn, Operator, Other fatalities, Location, Source, Narrative]

Corrections or additions? ... Edit this accident description